createdAt,value
2022-10-09T00:00:48.262Z,101861.13
2022-10-09T00:03:17.300Z,101858.59
2022-10-09T00:05:45.112Z,101861.00
2022-10-09T00:08:11.566Z,101864.59
2022-10-09T00:10:42.557Z,101866.28
2022-10-09T00:13:09.053Z,101867.94
2022-10-09T00:15:43.762Z,101861.88
2022-10-09T00:18:12.115Z,101860.03
2022-10-09T00:20:40.104Z,101863.41
2022-10-09T00:23:06.988Z,101859.03
2022-10-09T00:25:35.705Z,101859.09
2022-10-09T00:28:04.015Z,101861.69
2022-10-09T00:30:30.835Z,101866.91
2022-10-09T00:32:57.642Z,101863.38
2022-10-09T00:35:24.116Z,101856.50
2022-10-09T00:37:50.580Z,101858.16
2022-10-09T00:40:17.097Z,101856.28
2022-10-09T00:42:45.676Z,101851.97
2022-10-09T00:45:22.164Z,101854.53
2022-10-09T00:48:00.582Z,101858.00
2022-10-09T00:50:35.511Z,101858.00
2022-10-09T00:53:03.516Z,101857.28
2022-10-09T00:55:31.313Z,101846.09
2022-10-09T00:58:00.090Z,101850.34
2022-10-09T01:00:27.340Z,101852.97
2022-10-09T01:02:54.926Z,101853.00
2022-10-09T01:05:29.707Z,101849.13
2022-10-09T01:08:10.696Z,101856.06
2022-10-09T01:10:50.069Z,101860.34
2022-10-09T01:13:27.312Z,101869.06
2022-10-09T01:15:58.806Z,101857.81
2022-10-09T01:18:40.579Z,101864.75
2022-10-09T01:21:19.683Z,101860.41
2022-10-09T01:24:09.023Z,101856.06
2022-10-09T01:27:01.699Z,101860.56
2022-10-09T01:29:34.278Z,101849.38
2022-10-09T01:32:02.523Z,101855.34
2022-10-09T01:34:31.215Z,101849.88
2022-10-09T01:36:59.083Z,101847.16
2022-10-09T01:39:28.016Z,101841.13
2022-10-09T01:41:55.359Z,101836.59
2022-10-09T01:44:33.214Z,101842.59
2022-10-09T01:47:00.421Z,101846.97
2022-10-09T01:49:29.692Z,101842.63
2022-10-09T01:52:25.233Z,101833.88
2022-10-09T01:55:06.682Z,101839.88
2022-10-09T01:57:51.922Z,101832.06
2022-10-09T02:00:18.814Z,101823.22
2022-10-09T02:02:47.078Z,101832.03
2022-10-09T02:05:21.176Z,101829.38
2022-10-09T02:07:47.940Z,101820.53
2022-10-09T02:10:17.088Z,101817.91
2022-10-09T02:13:04.227Z,101816.28
2022-10-09T02:16:00.457Z,101814.59
2022-10-09T02:18:45.815Z,101815.16
2022-10-09T02:21:21.444Z,101812.47
2022-10-09T02:23:50.913Z,101804.72
2022-10-09T02:26:18.522Z,101797.78
2022-10-09T02:28:46.099Z,101804.84
2022-10-09T02:31:15.832Z,101805.63
2022-10-09T02:33:42.271Z,101804.59
2022-10-09T02:36:08.930Z,101807.16
2022-10-09T02:38:35.625Z,101809.88
2022-10-09T02:41:02.188Z,101815.97
2022-10-09T02:43:28.684Z,101801.03
2022-10-09T02:45:55.265Z,101807.25
2022-10-09T02:48:21.709Z,101810.06
2022-10-09T02:50:48.251Z,101811.84
2022-10-09T02:53:14.672Z,101810.81
2022-10-09T02:55:41.050Z,101811.00
2022-10-09T02:58:07.509Z,101811.00
2022-10-09T03:00:33.933Z,101806.50
2022-10-09T03:03:00.430Z,101804.75
2022-10-09T03:05:26.873Z,101808.16
2022-10-09T03:07:53.601Z,101814.25
2022-10-09T03:10:21.137Z,101806.66
2022-10-09T03:12:48.393Z,101811.06
2022-10-09T03:15:15.682Z,101801.47
2022-10-09T03:17:42.163Z,101803.09
2022-10-09T03:20:09.188Z,101807.97
2022-10-09T03:22:35.584Z,101801.97
2022-10-09T03:25:01.995Z,101806.09
2022-10-09T03:27:28.416Z,101800.00
2022-10-09T03:29:54.835Z,101809.44
2022-10-09T03:32:21.375Z,101803.34
2022-10-09T03:34:47.806Z,101810.25
2022-10-09T03:37:14.224Z,101806.00
2022-10-09T03:39:40.722Z,101798.31
2022-10-09T03:42:07.143Z,101800.91
2022-10-09T03:44:33.579Z,101797.44
2022-10-09T03:47:00.013Z,101797.59
2022-10-09T03:49:26.550Z,101790.84
2022-10-09T03:51:52.962Z,101788.13
2022-10-09T03:54:19.369Z,101784.66
2022-10-09T03:56:45.732Z,101793.16
2022-10-09T03:59:12.245Z,101784.25
2022-10-09T04:01:38.729Z,101780.69
2022-10-09T04:04:05.152Z,101793.63
2022-10-09T04:06:31.542Z,101793.50
2022-10-09T04:08:57.927Z,101799.59
2022-10-09T04:11:24.360Z,101803.72
2022-10-09T04:13:50.832Z,101795.00
2022-10-09T04:16:17.272Z,101797.78
2022-10-09T04:18:44.726Z,101798.53
2022-10-09T04:21:12.990Z,101794.91
2022-10-09T04:23:39.895Z,101800.97
2022-10-09T04:26:06.719Z,101801.91
2022-10-09T04:28:33.613Z,101794.88
2022-10-09T04:31:00.048Z,101800.88
2022-10-09T04:33:27.185Z,101800.75
2022-10-09T04:35:55.274Z,101798.16
2022-10-09T04:38:22.633Z,101792.06
2022-10-09T04:41:06.173Z,101783.59
2022-10-09T04:43:33.905Z,101789.63
2022-10-09T04:46:08.355Z,101789.66
2022-10-09T04:48:42.371Z,101778.34
2022-10-09T04:51:09.125Z,101774.75
2022-10-09T04:53:36.789Z,101773.06
2022-10-09T04:56:04.943Z,101774.19
2022-10-09T04:58:31.671Z,101767.97
2022-10-09T05:00:58.209Z,101772.34
2022-10-09T05:03:24.681Z,101768.75
2022-10-09T05:05:51.140Z,101765.38
2022-10-09T05:08:17.546Z,101771.31
2022-10-09T05:10:43.962Z,101761.72
2022-10-09T05:13:10.368Z,101772.81
2022-10-09T05:15:37.665Z,101768.34
2022-10-09T05:18:04.227Z,101764.03
2022-10-09T05:20:30.715Z,101767.31
2022-10-09T05:22:57.132Z,101767.47
2022-10-09T05:25:23.503Z,101767.28
2022-10-09T05:27:49.900Z,101769.91
2022-10-09T05:30:16.360Z,101774.41
2022-10-09T05:32:42.787Z,101772.59
2022-10-09T05:35:09.362Z,101763.34
2022-10-09T05:37:35.802Z,101765.97
2022-10-09T05:40:02.222Z,101761.03
2022-10-09T05:42:28.629Z,101761.06
2022-10-09T05:44:55.009Z,101762.81
2022-10-09T05:47:21.399Z,101764.38
2022-10-09T05:49:47.848Z,101765.19
2022-10-09T05:52:14.288Z,101765.09
2022-10-09T05:54:41.887Z,101766.06
2022-10-09T05:57:09.426Z,101763.63
2022-10-09T05:59:35.870Z,101759.97
2022-10-09T06:02:02.360Z,101762.59
2022-10-09T06:04:29.006Z,101751.25
2022-10-09T06:06:55.443Z,101756.47
2022-10-09T06:09:24.149Z,101762.25
2022-10-09T06:11:51.216Z,101773.56
2022-10-09T06:14:18.516Z,101774.22
2022-10-09T06:16:45.523Z,101763.84
2022-10-09T06:19:14.619Z,101768.28
2022-10-09T06:21:41.569Z,101772.63
2022-10-09T06:24:08.317Z,101777.94
2022-10-09T06:26:34.978Z,101776.28
2022-10-09T06:29:02.715Z,101778.91
2022-10-09T06:31:31.831Z,101781.56
2022-10-09T06:34:00.917Z,101772.09
2022-10-09T06:36:30.334Z,101769.59
2022-10-09T06:38:59.528Z,101775.81
2022-10-09T06:41:27.492Z,101774.09
2022-10-09T06:43:56.387Z,101779.41
2022-10-09T06:46:26.021Z,101770.13
2022-10-09T06:48:52.472Z,101772.84
2022-10-09T06:51:21.224Z,101773.88
2022-10-09T06:53:50.881Z,101775.78
2022-10-09T06:56:19.291Z,101768.06
2022-10-09T06:58:45.957Z,101773.34
2022-10-09T07:01:15.204Z,101769.91
2022-10-09T07:03:44.956Z,101767.47
2022-10-09T07:06:14.168Z,101772.72
2022-10-09T07:08:42.529Z,101774.56
2022-10-09T07:11:14.402Z,101769.41
2022-10-09T07:13:42.536Z,101766.09
2022-10-09T07:16:10.385Z,101770.59
2022-10-09T07:18:37.944Z,101771.59
2022-10-09T07:21:06.940Z,101776.91
2022-10-09T07:23:35.278Z,101777.88
2022-10-09T07:26:07.845Z,101773.72
2022-10-09T07:28:34.258Z,101773.78
2022-10-09T07:31:05.620Z,101779.06
2022-10-09T07:33:32.195Z,101770.44
2022-10-09T07:36:00.761Z,101773.16
2022-10-09T07:38:28.189Z,101767.13
2022-10-09T07:40:55.091Z,101768.94
2022-10-09T07:43:22.358Z,101767.25
2022-10-09T07:45:48.847Z,101769.06
2022-10-09T07:48:15.338Z,101763.91
2022-10-09T07:50:41.879Z,101764.00
2022-10-09T07:53:08.798Z,101762.31
2022-10-09T07:55:36.270Z,101759.72
2022-10-09T07:58:02.796Z,101763.25
2022-10-09T08:00:29.216Z,101752.88
2022-10-09T08:02:55.982Z,101745.13
2022-10-09T08:05:22.447Z,101753.06
2022-10-09T08:07:48.817Z,101747.03
2022-10-09T08:10:15.276Z,101743.66
2022-10-09T08:12:41.867Z,101740.25
2022-10-09T08:15:08.912Z,101742.88
2022-10-09T08:17:35.377Z,101747.22
2022-10-09T08:20:01.752Z,101744.72
2022-10-09T08:22:28.165Z,101738.69
2022-10-09T08:24:54.564Z,101739.63
2022-10-09T08:27:21.028Z,101741.38
2022-10-09T08:29:47.459Z,101744.91
2022-10-09T08:32:13.933Z,101744.13
2022-10-09T08:34:40.356Z,101744.16
2022-10-09T08:37:06.894Z,101751.19
2022-10-09T08:39:33.361Z,101752.16
2022-10-09T08:42:04.537Z,101742.81
2022-10-09T08:44:46.728Z,101741.97
2022-10-09T08:47:19.588Z,101735.94
2022-10-09T08:49:52.651Z,101735.97
2022-10-09T08:52:22.726Z,101726.47
2022-10-09T08:54:50.075Z,101728.22
2022-10-09T08:57:17.693Z,101731.81
2022-10-09T08:59:44.795Z,101721.38
2022-10-09T09:02:32.988Z,101724.06
2022-10-09T09:05:25.879Z,101715.38
2022-10-09T09:08:21.691Z,101721.47
2022-10-09T09:11:16.069Z,101714.56
2022-10-09T09:14:00.793Z,101710.31
2022-10-09T09:16:49.939Z,101710.34
2022-10-09T09:19:35.983Z,101701.69
2022-10-09T09:22:02.692Z,101701.75
2022-10-09T09:24:58.516Z,101695.69
2022-10-09T09:27:36.639Z,101691.31
2022-10-09T09:30:12.096Z,101682.69
2022-10-09T09:32:43.599Z,101687.94
2022-10-09T09:35:21.919Z,101677.47
2022-10-09T09:37:48.362Z,101677.50
2022-10-09T09:40:36.213Z,101671.44
2022-10-09T09:43:13.376Z,101669.72
2022-10-09T09:45:39.927Z,101658.31
2022-10-09T09:48:20.891Z,101664.41
2022-10-09T09:51:04.985Z,101651.31
2022-10-09T09:53:44.488Z,101657.44
2022-10-09T09:56:11.350Z,101649.47
2022-10-09T09:58:53.101Z,101647.56
2022-10-09T10:01:21.144Z,101644.09
2022-10-09T10:03:50.343Z,101638.91
2022-10-09T10:06:43.878Z,101638.72
2022-10-09T10:09:18.751Z,101641.31
2022-10-09T10:11:48.820Z,101629.81
2022-10-09T10:14:16.950Z,101631.56
2022-10-09T10:16:47.942Z,101626.28
2022-10-09T10:19:22.254Z,101623.53
2022-10-09T10:22:06.198Z,101627.16
2022-10-09T10:24:43.531Z,101625.47
2022-10-09T10:27:24.815Z,101621.88
2022-10-09T10:29:56.168Z,101618.38
2022-10-09T10:32:29.225Z,101618.38
2022-10-09T10:35:03.283Z,101607.00
2022-10-09T10:37:54.559Z,101600.72
2022-10-09T10:40:44.216Z,101592.72
2022-10-09T10:43:10.551Z,101589.16
2022-10-09T10:45:42.971Z,101580.25
2022-10-09T10:48:28.690Z,101581.25
2022-10-09T10:51:13.541Z,101575.13
2022-10-09T10:53:54.635Z,101575.09
2022-10-09T10:56:35.750Z,101578.34
2022-10-09T10:59:16.560Z,101567.84
2022-10-09T11:01:57.137Z,101560.88
2022-10-09T11:04:44.084Z,101567.88
2022-10-09T11:07:31.749Z,101559.88
2022-10-09T11:10:04.223Z,101559.66
2022-10-09T11:12:50.411Z,101547.50
2022-10-09T11:55:23.372Z,101480.09
2022-10-09T11:57:50.026Z,101479.47
2022-10-09T12:00:27.835Z,101476.69
2022-10-09T12:03:00.896Z,101459.84
2022-10-09T12:05:46.317Z,101455.41
2022-10-09T12:08:19.651Z,101456.09
2022-10-09T12:10:53.668Z,101455.28
2022-10-09T12:13:48.741Z,101450.13
2022-10-09T12:16:33.889Z,101442.09
2022-10-09T12:19:03.375Z,101433.41
2022-10-09T12:21:43.116Z,101436.69
2022-10-09T12:24:16.894Z,101423.75
2022-10-09T12:26:43.575Z,101419.44
2022-10-09T12:29:19.988Z,101426.88
2022-10-09T12:31:47.336Z,101421.25
2022-10-09T12:34:21.061Z,101413.56
2022-10-09T12:36:47.594Z,101413.53
2022-10-09T12:39:24.128Z,101408.91
2022-10-09T12:41:54.440Z,101405.66
2022-10-09T12:44:39.704Z,101404.72
2022-10-09T12:47:17.483Z,101399.25
2022-10-09T12:50:04.797Z,101392.13
2022-10-09T12:52:32.218Z,101391.38
2022-10-09T12:54:58.683Z,101380.22
2022-10-09T12:57:27.685Z,101378.53
2022-10-09T12:59:54.962Z,101372.41
2022-10-09T13:02:22.368Z,101363.31
2022-10-09T13:04:58.165Z,101357.97
2022-10-09T13:07:27.291Z,101362.09
2022-10-09T13:10:04.352Z,101357.59
2022-10-09T13:12:32.425Z,101352.25
2022-10-09T13:15:05.465Z,101359.00
2022-10-09T13:17:34.586Z,101348.28
2022-10-09T13:20:22.402Z,101341.53
2022-10-09T13:23:00.457Z,101337.81
2022-10-09T13:25:32.174Z,101330.59
2022-10-09T13:27:58.728Z,101327.19
2022-10-09T13:30:25.530Z,101324.00
2022-10-09T13:32:52.043Z,101316.44
2022-10-09T13:35:18.426Z,101317.59
2022-10-09T13:37:44.874Z,101317.97
2022-10-09T13:40:15.501Z,101315.88
2022-10-09T13:42:42.737Z,101300.84
2022-10-09T13:45:10.379Z,101305.03
2022-10-09T13:47:36.824Z,101297.94
2022-10-09T13:50:03.757Z,101292.56
2022-10-09T13:52:30.201Z,101297.88
2022-10-09T13:54:56.630Z,101291.50
2022-10-09T13:57:23.051Z,101287.28
2022-10-09T13:59:49.606Z,101280.53
2022-10-09T14:02:16.039Z,101275.25
2022-10-09T14:04:42.647Z,101275.75
2022-10-09T14:07:09.168Z,101277.19
2022-10-09T14:09:35.681Z,101268.97
2022-10-09T14:12:02.141Z,101270.66
2022-10-09T14:14:28.540Z,101262.28
2022-10-09T14:16:54.958Z,101261.66
2022-10-09T14:19:26.380Z,101261.88
2022-10-09T14:21:56.668Z,101258.31
2022-10-09T14:24:24.386Z,101252.28
2022-10-09T14:26:51.957Z,101244.03
2022-10-09T14:29:18.552Z,101237.75
2022-10-09T14:31:45.127Z,101242.06
2022-10-09T14:34:13.839Z,101238.72
2022-10-09T14:36:41.179Z,101235.81
2022-10-09T14:39:07.867Z,101233.19
2022-10-09T14:41:37.596Z,101229.00
2022-10-09T14:44:04.926Z,101218.78
2022-10-09T14:46:33.861Z,101213.47
2022-10-09T14:49:07.057Z,101211.38
2022-10-09T14:51:38.679Z,101210.97
2022-10-09T14:54:06.725Z,101206.06
2022-10-09T14:56:33.794Z,101203.59
2022-10-09T14:59:01.019Z,101196.59
2022-10-09T15:01:29.372Z,101198.03
2022-10-09T15:03:55.975Z,101186.28
2022-10-09T15:06:25.378Z,101182.97
2022-10-09T15:08:55.194Z,101184.94
2022-10-09T15:11:21.802Z,101188.44
2022-10-09T15:13:48.259Z,101186.16
2022-10-09T15:16:16.632Z,101185.63
2022-10-09T15:18:43.531Z,101175.75
2022-10-09T15:21:17.950Z,101177.81
2022-10-09T15:23:44.767Z,101172.69
2022-10-09T15:26:11.354Z,101166.09
2022-10-09T15:28:39.634Z,101166.81
2022-10-09T15:31:14.615Z,101156.94
2022-10-09T15:33:41.020Z,101157.56
2022-10-09T15:36:07.438Z,101158.84
2022-10-09T15:38:33.912Z,101158.44
2022-10-09T15:41:00.300Z,101153.16
2022-10-09T15:43:27.231Z,101146.13
2022-10-09T15:46:02.300Z,101147.94
2022-10-09T15:48:29.117Z,101142.09
2022-10-09T15:50:55.546Z,101130.22
2022-10-09T15:53:23.552Z,101133.19
2022-10-09T15:55:52.592Z,101122.81
2022-10-09T15:58:19.485Z,101122.00
2022-10-09T16:00:49.433Z,101118.72
2022-10-09T16:03:17.766Z,101118.97
2022-10-09T16:05:48.696Z,101122.44
2022-10-09T16:08:16.758Z,101110.25
2022-10-09T16:10:49.213Z,101109.38
2022-10-09T16:13:16.625Z,101108.75
2022-10-09T16:15:47.482Z,101107.22
2022-10-09T16:18:15.399Z,101101.38
2022-10-09T16:20:42.408Z,101105.06
2022-10-09T16:23:09.847Z,101111.41
2022-10-09T16:25:39.760Z,101109.81
2022-10-09T16:28:07.848Z,101109.97
2022-10-09T16:30:44.156Z,101106.63
2022-10-09T16:33:12.915Z,101113.69
2022-10-09T16:35:39.694Z,101106.75
2022-10-09T16:38:06.460Z,101104.19
2022-10-09T16:40:57.505Z,101099.97
2022-10-09T16:43:20.118Z,101095.75
2022-10-09T16:45:46.540Z,101096.72
2022-10-09T16:48:12.936Z,101090.75
2022-10-09T16:50:41.893Z,101089.09
2022-10-09T16:53:08.467Z,101094.44
2022-10-09T16:55:34.928Z,101091.06
2022-10-09T16:58:01.469Z,101090.22
2022-10-09T17:00:27.896Z,101092.09
2022-10-09T17:02:54.303Z,101088.66
2022-10-09T17:05:20.883Z,101081.75
2022-10-09T17:07:47.607Z,101088.84
2022-10-09T17:10:14.312Z,101087.19
2022-10-09T17:12:40.845Z,101084.66
2022-10-09T17:15:07.688Z,101088.22
2022-10-09T17:17:34.115Z,101090.88
2022-10-09T17:20:00.589Z,101084.81
2022-10-09T17:22:27.044Z,101087.53
2022-10-09T17:24:54.420Z,101089.41
2022-10-09T17:27:20.875Z,101087.75
2022-10-09T17:29:47.305Z,101080.91
2022-10-09T17:32:13.747Z,101084.44
2022-10-09T17:34:45.553Z,101082.72
2022-10-09T17:37:13.077Z,101086.34
2022-10-09T17:39:42.193Z,101079.38
2022-10-09T17:42:10.162Z,101086.44
2022-10-09T17:44:36.667Z,101095.19
2022-10-09T17:47:04.311Z,101090.00
2022-10-09T17:49:30.733Z,101086.56
2022-10-09T17:51:57.199Z,101086.66
2022-10-09T17:54:23.656Z,101078.88
2022-10-09T17:56:50.503Z,101074.56
2022-10-09T17:59:16.954Z,101081.56
2022-10-09T18:01:43.577Z,101079.81
2022-10-09T18:04:15.524Z,101079.88
2022-10-09T18:06:42.248Z,101078.19
2022-10-09T18:09:08.802Z,101069.47
2022-10-09T18:11:35.254Z,101066.91
2022-10-09T18:14:02.064Z,101074.75
2022-10-09T18:16:35.831Z,101064.28
2022-10-09T18:19:12.520Z,101059.97
2022-10-09T18:21:44.504Z,101059.97
2022-10-09T18:24:12.074Z,101055.63
2022-10-09T18:26:39.330Z,101047.81
2022-10-09T18:29:06.165Z,101051.31
2022-10-09T18:31:32.999Z,101060.19
2022-10-09T18:34:00.523Z,101052.38
2022-10-09T18:36:31.567Z,101052.41
2022-10-09T18:39:04.569Z,101050.69
2022-10-09T18:41:31.260Z,101046.38
2022-10-09T18:43:59.897Z,101042.91
2022-10-09T18:46:29.472Z,101041.16
2022-10-09T18:48:56.072Z,101042.09
2022-10-09T18:51:25.039Z,101037.75
2022-10-09T18:53:57.101Z,101037.75
2022-10-09T18:56:24.031Z,101033.44
2022-10-09T18:58:52.471Z,101038.81
2022-10-09T19:01:19.522Z,101032.88
2022-10-09T19:03:49.170Z,101036.34
2022-10-09T19:06:18.070Z,101032.94
2022-10-09T19:08:44.744Z,101032.06
2022-10-09T19:11:14.207Z,101042.56
2022-10-09T19:13:42.126Z,101035.59
2022-10-09T19:16:09.803Z,101035.59
2022-10-09T19:18:36.547Z,101030.41
2022-10-09T19:21:03.078Z,101032.16
2022-10-09T19:23:29.858Z,101030.41
2022-10-09T19:25:58.613Z,101031.25
2022-10-09T19:28:29.240Z,101031.19
2022-10-09T19:30:55.681Z,101020.72
2022-10-09T19:33:22.351Z,101026.81
2022-10-09T19:35:52.633Z,101017.25
2022-10-09T19:38:20.489Z,101023.34
2022-10-09T19:40:48.016Z,101025.97
2022-10-09T19:43:15.688Z,101025.09
2022-10-09T19:45:42.722Z,101019.84
2022-10-09T19:48:09.486Z,101021.59
2022-10-09T19:50:44.058Z,101018.09
2022-10-09T19:53:11.605Z,101011.16
2022-10-09T19:55:38.500Z,101012.03
2022-10-09T19:58:04.987Z,101006.00
2022-10-09T20:00:31.549Z,101006.88
2022-10-09T20:02:58.015Z,101010.41
2022-10-09T20:05:24.528Z,101006.06
2022-10-09T20:07:50.921Z,101010.41
2022-10-09T20:10:17.483Z,101006.09
2022-10-09T20:12:43.937Z,101001.75
2022-10-09T20:15:10.588Z,101001.78
2022-10-09T20:17:37.044Z,100995.72
2022-10-09T20:20:05.075Z,100995.75
2022-10-09T20:22:31.545Z,101001.00
2022-10-09T20:24:57.964Z,100994.06
2022-10-09T20:27:24.417Z,100995.91
2022-10-09T20:29:52.719Z,100994.19
2022-10-09T20:32:19.159Z,100990.72
2022-10-09T20:34:45.656Z,100993.38
2022-10-09T20:37:12.151Z,100996.00
2022-10-09T20:39:38.590Z,100982.94
2022-10-09T20:42:05.128Z,100989.97
2022-10-09T20:44:31.631Z,100987.38
2022-10-09T20:46:58.134Z,100994.38
2022-10-09T20:49:24.588Z,100986.59
2022-10-09T20:51:52.617Z,100978.81
2022-10-09T20:54:20.843Z,100977.97
2022-10-09T20:56:48.186Z,100984.09
2022-10-09T20:59:15.546Z,100984.16
2022-10-09T21:01:42.065Z,100984.16
2022-10-09T21:04:10.349Z,100981.63
2022-10-09T21:06:36.900Z,100978.16
2022-10-09T21:09:03.841Z,100983.41
2022-10-09T21:11:32.372Z,100973.88
2022-10-09T21:13:58.792Z,100977.41
2022-10-09T21:16:25.659Z,100978.31
2022-10-09T21:19:01.671Z,100972.22
2022-10-09T21:21:29.364Z,100967.03
2022-10-09T21:23:58.644Z,100964.44
2022-10-09T21:26:27.167Z,100962.72
2022-10-09T21:28:59.064Z,100966.19
2022-10-09T21:31:28.943Z,100966.22
2022-10-09T21:33:56.143Z,100962.78
2022-10-09T21:37:08.496Z,100961.03
2022-10-09T21:39:30.638Z,100965.38
2022-10-09T21:41:57.188Z,100960.19
2022-10-09T21:44:23.595Z,100957.63
2022-10-09T21:46:50.054Z,100953.28
2022-10-09T21:49:23.145Z,100960.31
2022-10-09T21:51:49.581Z,100949.84
2022-10-09T21:54:16.843Z,100948.16
2022-10-09T21:56:43.296Z,100947.28
2022-10-09T21:59:09.810Z,100949.03
2022-10-09T22:01:36.584Z,100943.81
2022-10-09T22:04:03.130Z,100940.34
2022-10-09T22:06:29.599Z,100942.97
2022-10-09T22:08:56.096Z,100942.97
2022-10-09T22:11:22.596Z,100940.34
2022-10-09T22:13:49.895Z,100941.16
2022-10-09T22:16:16.497Z,100937.72
2022-10-09T22:18:43.305Z,100931.63
2022-10-09T22:21:12.699Z,100932.50
2022-10-09T22:23:39.447Z,100934.25
2022-10-09T22:26:17.801Z,100928.16
2022-10-09T22:28:45.626Z,100922.09
2022-10-09T22:31:21.812Z,100916.09
2022-10-09T22:33:57.795Z,100915.22
2022-10-09T22:36:27.304Z,100920.44
2022-10-09T22:38:55.687Z,100912.63
2022-10-09T22:41:23.397Z,100910.91
2022-10-09T22:43:51.896Z,100916.97
2022-10-09T22:46:39.900Z,100920.47
2022-10-09T22:49:10.523Z,100910.91
2022-10-09T22:51:36.936Z,100908.28
2022-10-09T22:54:04.155Z,100908.31
2022-10-09T22:56:33.447Z,100910.03
2022-10-09T22:58:59.850Z,100909.22
2022-10-09T23:01:33.595Z,100906.59
2022-10-09T23:04:02.922Z,100904.81
2022-10-09T23:06:29.736Z,100903.09
2022-10-09T23:08:56.550Z,100904.88
2022-10-09T23:11:23.723Z,100902.25
2022-10-09T23:13:58.411Z,100897.94
2022-10-09T23:16:26.169Z,100889.22
2022-10-09T23:18:52.825Z,100884.00
2022-10-09T23:21:21.529Z,100884.91
2022-10-09T23:23:48.900Z,100885.81
2022-10-09T23:26:21.950Z,100881.47
2022-10-09T23:28:54.669Z,100875.38
2022-10-09T23:31:21.744Z,100868.47
2022-10-09T23:33:48.211Z,100866.72
2022-10-09T23:36:18.507Z,100872.81
2022-10-09T23:38:45.455Z,100865.84
2022-10-09T23:41:14.495Z,100871.06
2022-10-09T23:43:42.424Z,100863.25
2022-10-09T23:46:15.184Z,100866.72
2022-10-09T23:48:42.713Z,100868.47
2022-10-09T23:51:09.935Z,100866.78
2022-10-09T23:53:36.529Z,100872.00
2022-10-09T23:56:25.073Z,100863.31
2022-10-09T23:58:52.962Z,100866.81
